createdAt,value
2023-02-27T00:00:02.129Z,1.83
2023-02-27T00:02:28.797Z,2.42
2023-02-27T00:04:58.046Z,2.53
2023-02-27T00:07:26.108Z,1.85
2023-02-27T00:09:53.370Z,2.50
2023-02-27T00:12:20.166Z,2.53
2023-02-27T00:14:46.740Z,2.25
2023-02-27T00:17:13.116Z,2.13
2023-02-27T00:19:39.723Z,2.60
2023-02-27T00:22:06.109Z,2.15
2023-02-27T00:24:34.103Z,2.53
2023-02-27T00:27:01.009Z,2.20
2023-02-27T00:29:27.806Z,2.40
2023-02-27T00:31:55.052Z,2.33
2023-02-27T00:34:21.606Z,2.35
2023-02-27T00:36:48.106Z,2.25
2023-02-27T00:39:15.751Z,2.17
2023-02-27T00:41:42.334Z,2.70
2023-02-27T00:44:09.132Z,2.20
2023-02-27T00:46:35.856Z,2.28
2023-02-27T00:49:02.377Z,1.88
2023-02-27T00:51:29.084Z,2.65
2023-02-27T00:53:55.540Z,2.13
2023-02-27T00:56:22.158Z,1.77
2023-02-27T00:58:48.668Z,2.35
2023-02-27T01:01:16.392Z,3.03
2023-02-27T01:03:42.918Z,2.47
2023-02-27T01:06:09.576Z,2.40
2023-02-27T01:08:36.064Z,2.80
2023-02-27T01:11:02.441Z,2.30
2023-02-27T01:13:29.061Z,2.60
2023-02-27T01:15:55.435Z,2.42
2023-02-27T01:18:22.257Z,2.47
2023-02-27T01:20:55.349Z,2.10
2023-02-27T01:23:22.990Z,2.05
2023-02-27T01:25:49.762Z,1.90
2023-02-27T01:28:17.384Z,2.50
2023-02-27T01:30:44.216Z,1.90
2023-02-27T01:33:11.075Z,2.47
2023-02-27T01:35:37.834Z,2.63
2023-02-27T01:38:04.398Z,2.30
2023-02-27T01:40:36.442Z,2.50
2023-02-27T01:43:03.730Z,2.05
2023-02-27T01:45:31.908Z,2.83
2023-02-27T01:48:13.424Z,2.45
2023-02-27T01:50:46.425Z,2.42
2023-02-27T01:53:14.966Z,2.30
2023-02-27T01:55:42.196Z,2.40
2023-02-27T01:58:11.461Z,2.20
2023-02-27T02:00:39.108Z,2.20
2023-02-27T02:03:38.003Z,2.10
2023-02-27T02:06:07.089Z,1.63
2023-02-27T02:08:39.458Z,2.13
2023-02-27T02:11:07.732Z,1.98
2023-02-27T02:13:34.836Z,2.20
2023-02-27T02:16:06.886Z,2.75
2023-02-27T02:18:47.919Z,2.00
2023-02-27T02:21:52.814Z,1.90
2023-02-27T02:24:56.710Z,1.85
2023-02-27T02:27:37.731Z,2.15
2023-02-27T02:30:25.732Z,2.00
2023-02-27T02:33:23.195Z,2.30
2023-02-27T02:35:49.565Z,2.28
2023-02-27T02:39:10.191Z,1.88
2023-02-27T02:42:13.864Z,1.75
2023-02-27T02:44:43.133Z,2.03
2023-02-27T02:47:21.778Z,1.88
2023-02-27T02:49:59.783Z,1.50
2023-02-27T02:52:45.640Z,1.85
2023-02-27T02:55:33.339Z,1.77
2023-02-27T02:58:33.749Z,2.00
2023-02-27T03:01:12.895Z,1.80
2023-02-27T03:04:09.531Z,1.38
2023-02-27T03:06:47.730Z,1.92
2023-02-27T03:09:41.130Z,1.60
2023-02-27T03:12:11.009Z,1.65
2023-02-27T03:14:44.677Z,1.95
2023-02-27T03:17:20.983Z,1.70
2023-02-27T03:19:57.307Z,1.45
2023-02-27T03:22:31.372Z,1.75
2023-02-27T03:25:01.128Z,1.77
2023-02-27T03:27:35.327Z,1.92
2023-02-27T03:30:29.708Z,1.58
2023-02-27T03:33:08.328Z,1.83
2023-02-27T03:35:44.075Z,1.90
2023-02-27T03:38:41.149Z,1.75
2023-02-27T03:41:31.899Z,1.70
2023-02-27T03:44:13.356Z,1.60
2023-02-27T03:46:40.609Z,1.67
2023-02-27T03:49:07.302Z,1.52
2023-02-27T03:51:36.204Z,1.30
2023-02-27T03:54:02.545Z,1.40
2023-02-27T03:56:58.809Z,1.70
2023-02-27T03:59:26.065Z,1.70
2023-02-27T04:01:54.229Z,1.60
2023-02-27T04:04:21.640Z,1.50
2023-02-27T04:07:16.006Z,1.50
2023-02-27T04:09:42.318Z,1.77
2023-02-27T04:12:24.114Z,1.90
2023-02-27T04:15:03.862Z,1.90
2023-02-27T04:17:33.012Z,1.33
2023-02-27T04:20:10.388Z,1.40
2023-02-27T04:22:48.791Z,1.55
2023-02-27T04:25:27.256Z,1.95
2023-02-27T04:28:08.104Z,1.42
2023-02-27T04:30:34.460Z,1.63
2023-02-27T04:33:09.668Z,1.90
2023-02-27T04:35:40.981Z,1.60
2023-02-27T04:38:17.240Z,1.95
2023-02-27T04:40:50.194Z,1.52
2023-02-27T04:43:20.702Z,1.67
2023-02-27T04:45:49.738Z,1.30
2023-02-27T04:48:29.252Z,1.60
2023-02-27T04:51:12.365Z,1.70
2023-02-27T04:53:51.242Z,1.55
2023-02-27T04:56:25.035Z,1.90
2023-02-27T04:58:57.129Z,1.70
2023-02-27T05:01:37.085Z,1.50
2023-02-27T05:04:07.217Z,1.50
2023-02-27T05:06:36.618Z,1.23
2023-02-27T05:09:13.864Z,1.60
2023-02-27T05:11:54.656Z,1.23
2023-02-27T05:14:31.513Z,1.60
2023-02-27T05:17:22.577Z,1.58
2023-02-27T05:19:49.570Z,1.50
2023-02-27T05:22:39.807Z,1.50
2023-02-27T05:25:13.280Z,1.95
2023-02-27T05:27:50.636Z,1.50
2023-02-27T05:30:27.355Z,1.75
2023-02-27T05:33:24.874Z,1.40
2023-02-27T05:36:01.475Z,1.75
2023-02-27T05:38:31.684Z,1.55
2023-02-27T05:41:09.248Z,1.27
2023-02-27T05:43:42.313Z,1.50
2023-02-27T05:46:17.919Z,1.20
2023-02-27T05:48:50.937Z,1.48
2023-02-27T05:51:19.403Z,1.70
2023-02-27T05:53:51.011Z,1.40
2023-02-27T05:56:21.414Z,1.50
2023-02-27T05:58:55.909Z,1.77
2023-02-27T06:01:22.554Z,1.50
2023-02-27T06:03:49.081Z,1.75
2023-02-27T06:06:18.932Z,2.03
2023-02-27T06:08:46.346Z,1.90
2023-02-27T06:11:13.189Z,1.33
2023-02-27T06:13:41.949Z,1.63
2023-02-27T06:16:11.819Z,1.67
2023-02-27T06:18:38.602Z,1.50
2023-02-27T06:21:05.530Z,1.65
2023-02-27T06:23:32.073Z,1.40
2023-02-27T06:25:58.697Z,2.35
2023-02-27T06:28:25.605Z,1.85
2023-02-27T06:30:56.033Z,1.95
2023-02-27T06:33:26.293Z,1.52
2023-02-27T06:35:53.229Z,1.50
2023-02-27T06:38:19.860Z,1.48
2023-02-27T06:40:46.589Z,1.48
2023-02-27T06:43:13.055Z,1.67
2023-02-27T06:45:39.439Z,1.88
2023-02-27T06:48:06.283Z,1.83
2023-02-27T06:50:32.831Z,1.70
2023-02-27T06:53:00.031Z,2.05
2023-02-27T06:55:26.589Z,1.70
2023-02-27T06:57:53.135Z,1.52
2023-02-27T07:00:19.975Z,1.80
2023-02-27T07:02:46.736Z,1.80
2023-02-27T07:05:13.276Z,1.75
2023-02-27T07:07:40.233Z,1.95
2023-02-27T07:10:11.106Z,1.77
2023-02-27T07:12:38.524Z,1.80
2023-02-27T07:15:06.051Z,1.83
2023-02-27T07:17:33.633Z,1.90
2023-02-27T07:20:00.057Z,1.75
2023-02-27T07:22:26.568Z,2.38
2023-02-27T07:24:52.956Z,1.83
2023-02-27T07:27:19.441Z,1.92
2023-02-27T07:29:46.293Z,1.95
2023-02-27T07:32:12.874Z,1.98
2023-02-27T07:34:39.601Z,2.10
2023-02-27T07:37:06.007Z,1.85
2023-02-27T07:39:32.406Z,3.05
2023-02-27T07:41:58.870Z,2.10
2023-02-27T07:44:25.868Z,4.00
2023-02-27T07:46:52.826Z,3.45
2023-02-27T07:49:19.399Z,2.38
2023-02-27T07:51:45.829Z,2.38
2023-02-27T07:54:12.823Z,2.33
2023-02-27T07:56:39.262Z,2.50
2023-02-27T07:59:06.811Z,2.17
2023-02-27T08:01:33.749Z,3.45
2023-02-27T08:04:00.147Z,3.33
2023-02-27T08:06:27.268Z,3.63
2023-02-27T08:08:54.074Z,3.78
2023-02-27T08:11:20.702Z,4.57
2023-02-27T08:13:59.941Z,4.40
2023-02-27T08:16:28.151Z,3.45
2023-02-27T08:18:54.894Z,3.42
2023-02-27T08:21:21.411Z,3.67
2023-02-27T08:23:47.950Z,3.50
2023-02-27T08:26:14.714Z,3.15
2023-02-27T08:28:41.285Z,3.40
2023-02-27T08:31:07.998Z,2.13
2023-02-27T08:33:35.009Z,2.22
2023-02-27T08:36:02.092Z,1.88
2023-02-27T08:38:29.795Z,1.30
2023-02-27T08:40:56.210Z,1.85
2023-02-27T08:43:23.565Z,1.33
2023-02-27T08:45:50.690Z,1.42
2023-02-27T08:48:18.389Z,1.10
2023-02-27T08:50:46.233Z,1.15
2023-02-27T08:53:13.597Z,1.20
2023-02-27T08:55:40.276Z,1.08
2023-02-27T08:58:08.430Z,1.08
2023-02-27T09:00:34.850Z,1.38
2023-02-27T09:03:01.541Z,1.10
2023-02-27T09:05:29.445Z,1.15
2023-02-27T09:07:56.021Z,1.92
2023-02-27T09:10:22.626Z,1.20
2023-02-27T09:12:49.224Z,1.50
2023-02-27T09:15:16.260Z,1.25
2023-02-27T09:17:43.983Z,1.30
2023-02-27T09:20:11.734Z,1.15
2023-02-27T09:22:38.824Z,1.25
2023-02-27T09:25:06.485Z,1.25
2023-02-27T09:27:33.877Z,1.13
2023-02-27T09:30:00.522Z,1.35
2023-02-27T09:32:28.154Z,1.40
2023-02-27T09:34:55.406Z,0.95
2023-02-27T09:37:24.840Z,1.40
2023-02-27T09:39:51.978Z,1.30
2023-02-27T09:42:22.590Z,1.20
2023-02-27T09:44:52.271Z,1.30
2023-02-27T09:47:37.195Z,1.20
2023-02-27T09:50:06.186Z,1.40
2023-02-27T09:52:36.304Z,1.30
2023-02-27T09:55:06.121Z,1.10
2023-02-27T09:57:56.255Z,1.17
2023-02-27T10:00:31.545Z,1.40
2023-02-27T10:03:39.739Z,1.20
2023-02-27T10:06:07.204Z,1.42
2023-02-27T10:09:02.845Z,1.10
2023-02-27T10:11:57.547Z,1.42
2023-02-27T10:14:45.587Z,1.30
2023-02-27T10:17:22.024Z,1.35
2023-02-27T10:19:51.220Z,1.40
2023-02-27T10:22:30.501Z,1.08
2023-02-27T10:25:08.986Z,1.40
2023-02-27T10:27:39.729Z,1.30
2023-02-27T10:30:29.586Z,1.35
2023-02-27T10:33:32.031Z,1.10
2023-02-27T10:36:00.775Z,1.10
2023-02-27T10:38:29.242Z,1.13
2023-02-27T10:40:57.895Z,1.40
2023-02-27T10:43:24.493Z,1.40
2023-02-27T10:45:54.311Z,1.02
2023-02-27T10:48:22.528Z,1.17
2023-02-27T10:50:52.090Z,1.10
2023-02-27T10:53:18.871Z,1.05
2023-02-27T10:56:11.179Z,0.90
2023-02-27T10:58:38.115Z,0.90
2023-02-27T11:01:07.091Z,1.30
2023-02-27T11:03:40.907Z,1.17
2023-02-27T11:06:24.759Z,1.10
2023-02-27T11:09:18.647Z,1.10
2023-02-27T11:11:45.257Z,0.90
2023-02-27T11:14:31.269Z,1.00
2023-02-27T11:17:00.659Z,1.70
2023-02-27T11:19:34.699Z,1.05
2023-02-27T11:22:04.678Z,1.00
2023-02-27T11:24:32.241Z,0.98
2023-02-27T11:27:05.205Z,0.80
2023-02-27T11:29:33.911Z,0.80
2023-02-27T11:32:04.974Z,1.00
2023-02-27T11:34:39.348Z,1.00
2023-02-27T11:37:19.219Z,1.00
2023-02-27T11:39:51.652Z,0.85
2023-02-27T11:42:32.252Z,0.88
2023-02-27T11:45:08.108Z,1.08
2023-02-27T11:47:39.214Z,0.85
2023-02-27T11:50:21.648Z,1.00
2023-02-27T11:52:52.934Z,0.90
2023-02-27T11:55:24.574Z,0.70
2023-02-27T11:57:59.644Z,0.88
2023-02-27T12:03:16.236Z,0.80
2023-02-27T12:05:59.842Z,1.00
2023-02-27T12:08:35.304Z,0.85
2023-02-27T12:11:22.342Z,0.85
2023-02-27T12:13:57.113Z,0.68
2023-02-27T12:16:32.690Z,0.80
2023-02-27T12:19:11.918Z,0.80
2023-02-27T12:21:44.167Z,0.90
2023-02-27T12:24:36.120Z,0.90
2023-02-27T12:27:53.392Z,1.00
2023-02-27T12:30:25.289Z,0.70
2023-02-27T12:33:03.484Z,0.82
2023-02-27T12:35:33.021Z,1.15
2023-02-27T12:38:01.309Z,1.23
2023-02-27T12:40:46.847Z,0.65
2023-02-27T12:43:38.010Z,0.77
2023-02-27T12:46:28.713Z,0.90
2023-02-27T12:49:42.981Z,0.80
2023-02-27T12:52:38.662Z,0.73
2023-02-27T12:55:20.841Z,0.90
2023-02-27T12:58:06.297Z,0.98
2023-02-27T13:03:31.680Z,1.00
2023-02-27T13:06:15.205Z,0.88
2023-02-27T13:08:51.307Z,0.95
2023-02-27T13:11:29.322Z,0.75
2023-02-27T13:14:14.817Z,0.80
2023-02-27T13:16:46.771Z,0.90
2023-02-27T13:19:22.872Z,0.90
2023-02-27T13:21:57.704Z,0.90
2023-02-27T13:24:32.660Z,0.70
2023-02-27T13:27:06.538Z,0.70
2023-02-27T13:29:38.372Z,0.80
2023-02-27T13:32:43.536Z,0.68
2023-02-27T13:35:29.785Z,0.80
2023-02-27T13:38:01.839Z,0.85
2023-02-27T13:40:36.535Z,0.85
2023-02-27T13:43:33.062Z,0.70
2023-02-27T13:46:23.004Z,0.70
2023-02-27T13:48:53.582Z,0.70
2023-02-27T13:51:35.092Z,0.90
2023-02-27T13:54:07.669Z,0.93
2023-02-27T13:56:35.222Z,0.95
2023-02-27T13:59:33.606Z,0.70
2023-02-27T14:02:03.404Z,0.80
2023-02-27T14:04:34.162Z,0.68
2023-02-27T14:07:11.671Z,0.88
2023-02-27T14:09:44.292Z,0.80
2023-02-27T14:12:45.493Z,0.70
2023-02-27T14:15:24.798Z,0.60
2023-02-27T14:18:09.652Z,0.95
2023-02-27T14:20:40.972Z,0.98
2023-02-27T14:23:26.043Z,0.88
2023-02-27T14:25:58.214Z,0.90
2023-02-27T14:28:33.857Z,0.82
2023-02-27T14:31:18.255Z,1.08
2023-02-27T14:33:48.344Z,0.80
2023-02-27T14:36:21.700Z,0.80
2023-02-27T14:38:50.385Z,0.88
2023-02-27T14:41:35.492Z,1.10
2023-02-27T14:44:02.859Z,0.88
2023-02-27T14:46:32.408Z,0.90
2023-02-27T14:49:05.538Z,0.90
2023-02-27T14:51:34.865Z,0.77
2023-02-27T14:54:16.350Z,0.90
2023-02-27T14:56:54.222Z,0.90
2023-02-27T14:59:43.993Z,0.98
2023-02-27T15:02:27.451Z,1.05
2023-02-27T15:05:14.020Z,0.80
2023-02-27T15:07:40.713Z,0.93
2023-02-27T15:10:09.988Z,0.88
2023-02-27T15:12:38.022Z,1.10
2023-02-27T15:15:07.650Z,1.00
2023-02-27T15:17:38.495Z,1.00
2023-02-27T15:20:22.286Z,0.90
2023-02-27T15:22:48.747Z,1.20
2023-02-27T15:25:27.857Z,1.63
2023-02-27T15:27:57.871Z,2.85
2023-02-27T15:30:24.645Z,1.10
2023-02-27T15:32:51.328Z,1.00
2023-02-27T15:35:23.437Z,1.10
2023-02-27T15:37:56.020Z,1.00
2023-02-27T15:40:25.928Z,1.23
2023-02-27T15:42:54.241Z,1.10
2023-02-27T15:45:26.282Z,1.15
2023-02-27T15:47:53.043Z,1.08
2023-02-27T15:50:19.419Z,1.10
2023-02-27T15:53:03.343Z,0.98
2023-02-27T15:55:34.253Z,0.93
2023-02-27T15:58:03.496Z,1.10
2023-02-27T16:00:33.185Z,0.90
2023-02-27T16:03:00.991Z,1.10
2023-02-27T16:05:36.971Z,1.15
2023-02-27T16:08:06.580Z,1.50
2023-02-27T16:10:52.094Z,0.95
2023-02-27T16:16:21.129Z,1.10
2023-02-27T16:18:52.559Z,1.40
2023-02-27T16:21:22.472Z,1.10
2023-02-27T16:23:49.848Z,1.27
2023-02-27T16:26:39.080Z,1.20
2023-02-27T16:29:33.506Z,1.20
2023-02-27T16:32:00.604Z,1.15
2023-02-27T16:34:44.734Z,1.15
2023-02-27T16:37:30.339Z,1.17
2023-02-27T16:39:56.704Z,1.20
2023-02-27T16:42:23.587Z,1.00
2023-02-27T16:44:49.991Z,1.30
2023-02-27T16:47:16.517Z,1.10
2023-02-27T16:49:44.322Z,1.30
2023-02-27T16:52:11.533Z,1.30
2023-02-27T16:54:38.422Z,0.82
2023-02-27T16:57:05.723Z,1.10
2023-02-27T16:59:35.994Z,1.17
2023-02-27T17:02:05.346Z,1.30
2023-02-27T17:04:32.399Z,1.10
2023-02-27T17:07:00.957Z,1.25
2023-02-27T17:09:28.247Z,1.02
2023-02-27T17:11:55.842Z,1.10
2023-02-27T17:14:23.904Z,1.02
2023-02-27T17:16:50.382Z,1.23
2023-02-27T17:19:17.000Z,1.20
2023-02-27T17:21:43.552Z,1.30
2023-02-27T17:24:11.055Z,1.00
2023-02-27T17:26:37.905Z,1.08
2023-02-27T17:29:04.835Z,1.20
2023-02-27T17:31:32.494Z,1.17
2023-02-27T17:33:58.953Z,1.30
2023-02-27T17:36:26.281Z,1.00
2023-02-27T17:39:02.746Z,1.20
2023-02-27T17:41:31.786Z,1.10
2023-02-27T17:43:59.265Z,1.13
2023-02-27T17:46:27.808Z,1.02
2023-02-27T17:48:59.850Z,1.15
2023-02-27T17:51:29.836Z,1.20
2023-02-27T17:53:57.370Z,1.50
2023-02-27T17:56:24.175Z,1.60
2023-02-27T17:58:51.233Z,1.60
2023-02-27T18:01:22.771Z,1.17
2023-02-27T18:03:50.170Z,1.33
2023-02-27T18:06:17.744Z,1.58
2023-02-27T18:08:44.632Z,1.50
2023-02-27T18:11:13.224Z,2.13
2023-02-27T18:13:41.381Z,2.30
2023-02-27T18:16:09.151Z,3.00
2023-02-27T18:18:40.614Z,4.75
2023-02-27T18:21:10.868Z,3.38
2023-02-27T18:23:38.225Z,4.70
2023-02-27T18:26:05.048Z,3.88
2023-02-27T18:28:31.904Z,3.15
2023-02-27T18:30:58.652Z,2.83
2023-02-27T18:33:25.929Z,2.50
2023-02-27T18:35:52.360Z,3.05
2023-02-27T18:38:19.213Z,2.05
2023-02-27T18:40:45.735Z,2.10
2023-02-27T18:43:13.849Z,2.08
2023-02-27T18:45:40.936Z,2.00
2023-02-27T18:48:07.957Z,2.03
2023-02-27T18:50:34.477Z,1.90
2023-02-27T18:53:01.412Z,1.80
2023-02-27T18:55:28.107Z,1.75
2023-02-27T18:57:54.679Z,1.70
2023-02-27T19:00:24.280Z,1.20
2023-02-27T19:02:50.981Z,1.30
2023-02-27T19:05:17.625Z,1.42
2023-02-27T19:07:44.189Z,1.70
2023-02-27T19:10:12.227Z,1.73
2023-02-27T19:12:38.679Z,2.00
2023-02-27T19:15:05.662Z,2.35
2023-02-27T19:17:33.396Z,1.70
2023-02-27T19:20:00.059Z,1.58
2023-02-27T19:22:29.385Z,2.03
2023-02-27T19:24:58.812Z,2.20
2023-02-27T19:27:26.130Z,1.35
2023-02-27T19:29:52.549Z,1.60
2023-02-27T19:32:20.577Z,1.60
2023-02-27T19:34:47.137Z,1.67
2023-02-27T19:37:15.869Z,1.70
2023-02-27T19:39:42.429Z,1.40
2023-02-27T19:42:09.105Z,1.65
2023-02-27T19:44:35.951Z,1.83
2023-02-27T19:47:02.852Z,1.83
2023-02-27T19:49:29.519Z,1.65
2023-02-27T19:51:56.061Z,1.70
2023-02-27T19:54:22.994Z,2.13
2023-02-27T19:56:49.599Z,1.77
2023-02-27T19:59:17.767Z,1.98
2023-02-27T20:01:44.404Z,2.75
2023-02-27T20:04:11.873Z,4.47
2023-02-27T20:06:43.799Z,3.80
2023-02-27T20:09:14.833Z,2.35
2023-02-27T20:11:43.348Z,2.20
2023-02-27T20:14:10.837Z,1.85
2023-02-27T20:16:37.610Z,2.38
2023-02-27T20:19:04.951Z,2.50
2023-02-27T20:21:33.118Z,3.47
2023-02-27T20:24:00.741Z,4.15
2023-02-27T20:26:33.505Z,3.85
2023-02-27T20:29:07.750Z,4.65
2023-02-27T20:31:36.024Z,4.97
2023-02-27T20:34:05.855Z,3.67
2023-02-27T20:36:35.650Z,3.40
2023-02-27T20:39:02.750Z,2.50
2023-02-27T20:41:30.023Z,3.00
2023-02-27T20:43:57.103Z,2.70
2023-02-27T20:46:27.817Z,2.60
2023-02-27T20:49:00.788Z,3.67
2023-02-27T20:51:35.048Z,4.65
2023-02-27T20:54:03.186Z,4.03
2023-02-27T20:56:42.059Z,3.55
2023-02-27T20:59:18.679Z,3.30
2023-02-27T21:01:51.169Z,3.10
2023-02-27T21:04:42.678Z,2.72
2023-02-27T21:07:11.457Z,3.00
2023-02-27T21:09:38.770Z,3.00
2023-02-27T21:12:06.532Z,2.78
2023-02-27T21:14:33.805Z,3.10
2023-02-27T21:17:00.633Z,3.65
2023-02-27T21:19:27.382Z,5.03
2023-02-27T21:21:53.797Z,4.70
2023-02-27T21:24:20.754Z,4.57
2023-02-27T21:26:47.224Z,4.38
2023-02-27T21:29:17.673Z,4.15
2023-02-27T21:31:49.089Z,4.07
2023-02-27T21:34:19.220Z,3.60
2023-02-27T21:36:46.723Z,4.00
2023-02-27T21:39:28.057Z,2.88
2023-02-27T21:41:55.040Z,2.95
2023-02-27T21:44:25.124Z,2.47
2023-02-27T21:46:53.297Z,2.10
2023-02-27T21:49:22.662Z,1.90
2023-02-27T21:51:49.412Z,1.80
2023-02-27T21:54:17.402Z,1.90
2023-02-27T21:56:45.764Z,2.33
2023-02-27T21:59:12.791Z,2.92
2023-02-27T22:01:39.433Z,2.42
2023-02-27T22:04:06.379Z,2.42
2023-02-27T22:06:34.086Z,2.55
2023-02-27T22:09:04.754Z,2.22
2023-02-27T22:11:32.881Z,2.13
2023-02-27T22:13:59.559Z,2.35
2023-02-27T22:16:26.052Z,2.20
2023-02-27T22:18:52.528Z,2.20
2023-02-27T22:21:22.861Z,2.70
2023-02-27T22:23:50.423Z,2.20
2023-02-27T22:26:25.782Z,2.00
2023-02-27T22:28:52.731Z,2.50
2023-02-27T22:31:24.996Z,2.05
2023-02-27T22:33:54.307Z,2.00
2023-02-27T22:36:26.929Z,1.98
2023-02-27T22:38:54.136Z,2.00
2023-02-27T22:41:23.413Z,2.00
2023-02-27T22:43:51.240Z,2.25
2023-02-27T22:46:24.889Z,2.13
2023-02-27T22:48:56.264Z,2.00
2023-02-27T22:51:25.301Z,2.20
2023-02-27T22:53:51.968Z,2.15
2023-02-27T22:56:18.472Z,2.38
2023-02-27T22:58:45.278Z,1.95
2023-02-27T23:01:21.105Z,2.40
2023-02-27T23:03:49.381Z,1.88
2023-02-27T23:06:19.623Z,1.75
2023-02-27T23:08:46.942Z,1.90
2023-02-27T23:11:14.902Z,1.52
2023-02-27T23:13:41.585Z,2.17
2023-02-27T23:16:12.396Z,2.00
2023-02-27T23:18:43.555Z,2.13
2023-02-27T23:21:10.593Z,2.22
2023-02-27T23:23:37.248Z,2.13
2023-02-27T23:26:05.793Z,2.45
2023-02-27T23:28:33.813Z,1.80
2023-02-27T23:31:00.824Z,2.45
2023-02-27T23:33:29.325Z,2.50
2023-02-27T23:35:57.589Z,2.40
2023-02-27T23:38:25.184Z,2.13
2023-02-27T23:40:52.494Z,2.30
2023-02-27T23:43:18.869Z,2.60
2023-02-27T23:45:45.660Z,2.55
2023-02-27T23:48:12.706Z,2.40
2023-02-27T23:50:44.124Z,2.05
2023-02-27T23:53:13.774Z,2.28
2023-02-27T23:55:40.895Z,2.70
2023-02-27T23:58:10.132Z,2.88
